createdAt,value
2019-04-21T00:01:59.698Z,102617.06
2019-04-21T00:04:46.858Z,102611.37
2019-04-21T00:07:29.717Z,102611.38
2019-04-21T00:10:09.710Z,102606.54
2019-04-21T00:12:34.437Z,102605.24
2019-04-21T00:15:01.966Z,102595.21
2019-04-21T00:17:31.628Z,102593.91
2019-04-21T00:20:19.196Z,102595.22
2019-04-21T00:22:54.660Z,102587.81
2019-04-21T00:25:30.939Z,102585.15
2019-04-21T00:28:13.969Z,102583.42
2019-04-21T00:30:50.780Z,102582.59
2019-04-21T00:33:12.433Z,102583.44
2019-04-21T00:35:45.122Z,102578.19
2019-04-21T00:38:40.383Z,102575.59
2019-04-21T00:41:14.727Z,102574.72
2019-04-21T00:43:41.323Z,102569.51
2019-04-21T00:46:10.094Z,102567.25
2019-04-21T00:49:00.356Z,102561.63
2019-04-21T00:51:39.855Z,102562.92
2019-04-21T00:54:13.530Z,102559.45
2019-04-21T00:56:46.672Z,102553.33
2019-04-21T00:59:19.546Z,102551.14
2019-04-21T01:01:52.768Z,102549.41
2019-04-21T01:04:33.755Z,102550.75
2019-04-21T01:07:01.634Z,102548.98
2019-04-21T01:09:31.714Z,102545.94
2019-04-21T01:12:15.681Z,102545.51
2019-04-21T01:14:58.175Z,102539.38
2019-04-21T01:17:21.693Z,102538.50
2019-04-21T01:19:54.567Z,102532.40
2019-04-21T01:22:13.302Z,102533.70
2019-04-21T01:24:53.509Z,102534.11
2019-04-21T01:27:43.875Z,102528.91
2019-04-21T01:30:16.372Z,102528.47
2019-04-21T01:32:53.250Z,102529.31
2019-04-21T01:35:27.008Z,102432.16
2019-04-21T01:38:01.937Z,102524.98
2019-04-21T01:40:42.623Z,102519.75
2019-04-21T01:43:13.583Z,102517.98
2019-04-21T01:45:48.787Z,102526.30
2019-04-21T01:48:21.831Z,102520.20
2019-04-21T01:50:55.778Z,102515.41
2019-04-21T01:53:36.665Z,102510.17
2019-04-21T01:56:11.894Z,102507.53
2019-04-21T01:58:39.919Z,102504.50
2019-04-21T02:01:24.595Z,102499.25
2019-04-21T02:03:58.275Z,102500.57
2019-04-21T02:06:36.161Z,102491.83
2019-04-21T02:09:06.747Z,102494.47
2019-04-21T02:11:52.062Z,102493.16
2019-04-21T02:14:23.691Z,102487.50
2019-04-21T02:16:54.064Z,102482.25
2019-04-21T02:19:24.616Z,102480.08
2019-04-21T02:22:00.879Z,102475.73
2019-04-21T02:27:19.081Z,102468.73
2019-04-21T02:29:55.206Z,102468.74
2019-04-21T02:37:54.915Z,102462.20
2019-04-21T02:40:35.815Z,102455.22
2019-04-21T02:45:30.213Z,102443.42
2019-04-21T02:53:30.388Z,102427.77
2019-04-21T02:55:51.440Z,102418.58
2019-04-21T02:58:34.453Z,102422.08
2019-04-21T03:01:07.564Z,102411.64
2019-04-21T03:03:37.808Z,102410.33
2019-04-21T03:11:17.132Z,102402.48
2019-04-21T03:14:13.639Z,102402.48
2019-04-21T03:16:31.051Z,102315.31
2019-04-21T03:19:17.539Z,102403.29
2019-04-21T03:21:50.599Z,102396.80
2019-04-21T03:24:18.508Z,102394.20
2019-04-21T03:27:20.594Z,102385.48
2019-04-21T03:32:53.071Z,102381.58
2019-04-21T03:35:24.666Z,102377.22
2019-04-21T03:42:34.817Z,102378.09
2019-04-21T03:45:03.765Z,102386.81
2019-04-21T03:47:35.436Z,102380.27
2019-04-21T03:50:22.391Z,102379.41
2019-04-21T03:53:06.991Z,102379.39
2019-04-21T03:58:19.680Z,102378.52
2019-04-21T04:03:42.193Z,102379.41
2019-04-21T04:06:03.363Z,102372.42
2019-04-21T04:08:44.758Z,102369.37
2019-04-21T04:11:12.549Z,102363.72
2019-04-21T04:16:18.357Z,102354.12
2019-04-21T04:18:53.771Z,102352.41
2019-04-21T04:26:43.268Z,102336.69
2019-04-21T04:31:42.733Z,102339.80
2019-04-21T04:37:05.505Z,102336.73
2019-04-21T04:39:50.031Z,102338.91
2019-04-21T04:42:26.712Z,102334.13
2019-04-21T04:47:35.009Z,102331.08
2019-04-21T04:49:54.979Z,102324.09
2019-04-21T05:00:28.696Z,102324.97
2019-04-21T05:02:54.958Z,102321.48
2019-04-21T05:05:26.796Z,102326.28
2019-04-21T05:08:07.637Z,102328.03
2019-04-21T05:10:47.566Z,102325.84
2019-04-21T05:13:14.359Z,102317.16
2019-04-21T05:15:53.659Z,102327.61
2019-04-21T05:18:28.571Z,102328.04
2019-04-21T05:21:03.556Z,102322.81
2019-04-21T05:23:24.658Z,102328.04
2019-04-21T05:25:53.344Z,102326.73
2019-04-21T05:28:31.658Z,102325.84
2019-04-21T05:31:13.939Z,102326.30
2019-04-21T05:33:44.796Z,102323.69
2019-04-21T05:36:23.977Z,102318.44
2019-04-21T05:38:53.062Z,102319.73
2019-04-21T05:41:21.309Z,102320.61
2019-04-21T05:44:06.330Z,102313.61
2019-04-21T05:46:53.543Z,102324.09
2019-04-21T05:49:13.921Z,102314.97
2019-04-21T05:51:44.315Z,102323.25
2019-04-21T05:54:29.620Z,102319.28
2019-04-21T05:56:59.846Z,102324.52
2019-04-21T05:59:41.792Z,102323.67
2019-04-21T06:05:10.008Z,102319.32
2019-04-21T06:09:59.673Z,102313.20
2019-04-21T06:12:35.929Z,102308.87
2019-04-21T06:15:12.285Z,102316.28
2019-04-21T06:17:54.401Z,102313.66
2019-04-21T06:20:20.716Z,102313.66
2019-04-21T06:22:57.895Z,102313.17
2019-04-21T06:28:09.251Z,102305.34
2019-04-21T06:30:53.114Z,102308.84
2019-04-21T06:33:19.651Z,102304.47
2019-04-21T06:36:20.887Z,102306.21
2019-04-21T06:38:36.026Z,102302.72
2019-04-21T06:41:06.208Z,102305.78
2019-04-21T06:43:41.310Z,102306.20
2019-04-21T06:46:21.102Z,102299.25
2019-04-21T06:48:53.817Z,102301.01
2019-04-21T06:51:27.467Z,102298.39
2019-04-21T06:59:06.460Z,102297.94
2019-04-21T07:02:08.330Z,102296.64
2019-04-21T07:06:53.680Z,102294.06
2019-04-21T07:09:31.140Z,102289.66
2019-04-21T07:12:05.839Z,102285.34
2019-04-21T07:14:49.771Z,102288.83
2019-04-21T07:17:20.262Z,102287.94
2019-04-21T07:19:55.178Z,102290.13
2019-04-21T07:22:34.758Z,102288.80
2019-04-21T07:25:07.355Z,102287.50
2019-04-21T07:27:43.070Z,102286.61
2019-04-21T07:30:12.853Z,102284.89
2019-04-21T07:35:22.277Z,102281.37
2019-04-21T07:37:57.879Z,102278.73
2019-04-21T07:40:29.069Z,102281.80
2019-04-21T07:43:03.795Z,102280.05
2019-04-21T07:45:36.703Z,102279.58
2019-04-21T07:48:21.157Z,102279.57
2019-04-21T07:50:52.064Z,102274.22
2019-04-21T07:53:36.738Z,102276.90
2019-04-21T07:55:45.916Z,102270.37
2019-04-21T07:58:47.529Z,102268.17
2019-04-21T08:01:19.959Z,102264.22
2019-04-21T08:03:45.406Z,102262.48
2019-04-21T08:06:26.899Z,102264.23
2019-04-21T08:09:00.918Z,102263.31
2019-04-21T08:11:32.678Z,102259.20
2019-04-21T08:14:00.559Z,102257.56
2019-04-21T08:16:44.900Z,102251.88
2019-04-21T08:19:19.001Z,102242.75
2019-04-21T08:22:03.802Z,102251.25
2019-04-21T08:24:27.339Z,102248.25
2019-04-21T08:32:15.481Z,102243.09
2019-04-21T08:35:08.412Z,102241.78
2019-04-21T08:37:24.854Z,102237.85
2019-04-21T08:40:09.359Z,102225.16
2019-04-21T08:42:38.279Z,102229.98
2019-04-21T08:45:15.227Z,102224.73
2019-04-21T08:47:46.085Z,102217.27
2019-04-21T08:50:21.193Z,102216.41
2019-04-21T08:55:32.170Z,102213.34
2019-04-21T08:58:14.168Z,102210.24
2019-04-21T09:00:51.425Z,102211.53
2019-04-21T09:03:14.250Z,102209.36
2019-04-21T09:05:51.250Z,102196.70
2019-04-21T09:08:24.835Z,102196.28
2019-04-21T09:10:59.390Z,102196.73
2019-04-21T09:13:37.202Z,102189.30
2019-04-21T09:16:09.863Z,102191.03
2019-04-21T09:18:43.335Z,102177.92
2019-04-21T09:21:28.486Z,102173.99
2019-04-21T09:24:00.620Z,102171.79
2019-04-21T09:26:29.521Z,102170.91
2019-04-21T09:29:00.717Z,102171.34
2019-04-21T09:31:30.971Z,102162.23
2019-04-21T09:34:04.444Z,102162.44
2019-04-21T09:36:43.193Z,102159.84
2019-04-21T09:39:15.020Z,102156.83
2019-04-21T09:41:51.203Z,102152.12
2019-04-21T09:44:27.291Z,102144.05
2019-04-21T09:47:01.020Z,102144.15
2019-04-21T09:49:33.948Z,102143.73
2019-04-21T09:52:13.757Z,102138.58
2019-04-21T09:54:53.066Z,102136.92
2019-04-21T09:57:27.613Z,102129.24
2019-04-21T10:00:04.088Z,102122.77
2019-04-21T10:02:38.517Z,102116.30
2019-04-21T10:05:05.267Z,102120.80
2019-04-21T10:07:42.265Z,102117.89
2019-04-21T10:10:14.965Z,102112.71
2019-04-21T10:12:49.946Z,102108.41
2019-04-21T10:15:25.016Z,102108.41
2019-04-21T10:17:58.979Z,102103.27
2019-04-21T10:20:32.917Z,102104.53
2019-04-21T10:23:07.208Z,102095.41
2019-04-21T10:25:40.996Z,102095.84
2019-04-21T10:28:15.018Z,102084.94
2019-04-21T10:30:50.970Z,102084.09
2019-04-21T10:33:26.206Z,102084.09
2019-04-21T10:35:59.656Z,102084.94
2019-04-21T10:38:40.524Z,102079.72
2019-04-21T10:41:10.148Z,102075.78
2019-04-21T10:43:45.092Z,102075.78
2019-04-21T10:46:19.153Z,102065.78
2019-04-21T10:48:52.861Z,102062.27
2019-04-21T10:51:26.211Z,102064.45
2019-04-21T10:53:59.818Z,102059.64
2019-04-21T10:56:38.803Z,102048.30
2019-04-21T10:59:08.362Z,102045.28
2019-04-21T11:01:42.958Z,102040.46
2019-04-21T11:04:23.067Z,102041.33
2019-04-21T11:06:52.692Z,102036.13
2019-04-21T11:09:26.482Z,102028.72
2019-04-21T11:11:59.990Z,102020.84
2019-04-21T11:14:33.529Z,102019.48
2019-04-21T11:17:07.951Z,102016.91
2019-04-21T11:19:41.455Z,102017.67
2019-04-21T11:22:14.845Z,102016.41
2019-04-21T11:24:49.094Z,102012.08
2019-04-21T11:27:22.674Z,102017.75
2019-04-21T11:29:56.053Z,102005.50
2019-04-21T11:32:30.735Z,102003.42
2019-04-21T11:35:05.356Z,102007.71
2019-04-21T11:37:39.831Z,102005.27
2019-04-21T11:40:16.736Z,101998.49
2019-04-21T11:42:48.305Z,101993.31
2019-04-21T11:45:34.722Z,101994.17
2019-04-21T11:48:08.266Z,101989.36
2019-04-21T11:50:41.590Z,101985.42
2019-04-21T11:53:14.951Z,101985.42
2019-04-21T11:55:50.265Z,101981.98
2019-04-21T11:58:23.731Z,101982.67
2019-04-21T12:00:57.958Z,101978.00
2019-04-21T12:03:31.784Z,101965.83
2019-04-21T12:06:06.848Z,101968.69
2019-04-21T12:08:44.333Z,101961.77
2019-04-21T12:11:15.858Z,101960.42
2019-04-21T12:13:49.940Z,101953.89
2019-04-21T12:16:23.500Z,101945.59
2019-04-21T12:18:56.847Z,101943.41
2019-04-21T12:21:45.051Z,101942.50
2019-04-21T12:24:05.258Z,101934.34
2019-04-21T12:26:40.180Z,101938.84
2019-04-21T12:29:14.573Z,101934.55
2019-04-21T12:31:48.096Z,101931.53
2019-04-21T12:34:21.894Z,101923.62
2019-04-21T12:36:56.956Z,101922.70
2019-04-21T12:39:30.884Z,101916.12
2019-04-21T12:42:04.776Z,101910.41
2019-04-21T12:44:39.154Z,101909.85
2019-04-21T12:47:14.058Z,101904.37
2019-04-21T12:49:47.841Z,101901.80
2019-04-21T12:52:21.843Z,101893.11
2019-04-21T12:54:55.622Z,101898.28
2019-04-21T12:57:31.880Z,101887.86
2019-04-21T13:00:06.796Z,101881.73
2019-04-21T13:02:41.935Z,101873.84
2019-04-21T13:05:15.823Z,101875.68
2019-04-21T13:07:51.228Z,101863.97
2019-04-21T13:10:24.782Z,101865.77
2019-04-21T13:12:58.117Z,101861.38
2019-04-21T13:15:31.535Z,101855.62
2019-04-21T13:18:08.049Z,101854.22
2019-04-21T13:20:42.248Z,101845.84
2019-04-21T13:23:16.752Z,101845.71
2019-04-21T13:25:50.197Z,101836.12
2019-04-21T13:28:24.928Z,101838.73
2019-04-21T13:30:58.513Z,101832.48
2019-04-21T13:33:33.627Z,101836.66
2019-04-21T13:36:07.651Z,101827.94
2019-04-21T13:38:58.134Z,101826.92
2019-04-21T13:41:29.738Z,101819.70
2019-04-21T13:43:53.038Z,101825.62
2019-04-21T13:46:27.209Z,101815.36
2019-04-21T13:49:01.600Z,101811.24
2019-04-21T13:51:36.062Z,101805.84
2019-04-21T13:54:09.737Z,101808.20
2019-04-21T13:56:44.899Z,101802.17
2019-04-21T13:59:20.111Z,101805.51
2019-04-21T14:01:54.051Z,101805.41
2019-04-21T14:04:27.690Z,101796.05
2019-04-21T14:07:02.422Z,101795.23
2019-04-21T14:09:45.831Z,101791.89
2019-04-21T14:12:13.633Z,101789.22
2019-04-21T14:14:48.318Z,101781.28
2019-04-21T14:17:22.480Z,101772.78
2019-04-21T14:19:56.991Z,101770.20
2019-04-21T14:22:31.796Z,101768.78
2019-04-21T14:25:08.291Z,101766.41
2019-04-21T14:27:41.919Z,101757.84
2019-04-21T14:30:16.554Z,101756.20
2019-04-21T14:32:49.977Z,101759.81
2019-04-21T14:35:23.323Z,101755.95
2019-04-21T14:37:56.761Z,101745.13
2019-04-21T14:40:33.206Z,101745.66
2019-04-21T14:43:05.922Z,101736.84
2019-04-21T14:45:40.704Z,101734.95
2019-04-21T14:48:14.816Z,101734.17
2019-04-21T14:50:48.403Z,101734.26
2019-04-21T14:53:21.838Z,101739.09
2019-04-21T14:55:55.406Z,101732.09
2019-04-21T14:58:28.757Z,101733.41
2019-04-21T15:01:04.237Z,101727.33
2019-04-21T15:03:37.733Z,101723.39
2019-04-21T15:06:11.635Z,101722.54
2019-04-21T15:08:47.135Z,101717.33
2019-04-21T15:11:21.938Z,101711.75
2019-04-21T15:13:55.983Z,101706.13
2019-04-21T15:16:29.535Z,101707.07
2019-04-21T15:19:02.693Z,101704.94
2019-04-21T15:21:37.753Z,101698.91
2019-04-21T15:24:12.160Z,101697.52
2019-04-21T15:26:46.702Z,101692.97
2019-04-21T15:29:20.577Z,101693.55
2019-04-21T15:31:54.637Z,101692.77
2019-04-21T15:34:28.178Z,101693.66
2019-04-21T15:37:01.980Z,101686.62
2019-04-21T15:39:35.356Z,101688.05
2019-04-21T15:42:08.717Z,101685.91
2019-04-21T15:44:42.878Z,101684.67
2019-04-21T15:47:17.802Z,101680.33
2019-04-21T15:49:58.934Z,101676.36
2019-04-21T15:52:27.971Z,101672.88
2019-04-21T15:55:03.150Z,101664.52
2019-04-21T15:57:37.716Z,101664.11
2019-04-21T16:00:11.224Z,101661.48
2019-04-21T16:02:44.754Z,101660.99
2019-04-21T16:05:19.145Z,101660.05
2019-04-21T16:07:54.095Z,101660.46
2019-04-21T16:10:39.505Z,101656.00
2019-04-21T16:13:03.509Z,101657.71
2019-04-21T16:15:36.896Z,101651.03
2019-04-21T16:18:10.326Z,101644.89
2019-04-21T16:20:43.993Z,101643.98
2019-04-21T16:23:18.216Z,101644.00
2019-04-21T16:25:52.743Z,101642.41
2019-04-21T16:28:27.035Z,101638.92
2019-04-21T16:31:00.624Z,101633.23
2019-04-21T16:33:33.987Z,101633.22
2019-04-21T16:36:10.322Z,101627.52
2019-04-21T16:38:43.698Z,101627.52
2019-04-21T16:41:18.236Z,101625.70
2019-04-21T16:43:53.149Z,101622.63
2019-04-21T16:46:27.468Z,101616.39
2019-04-21T16:49:02.002Z,101620.16
2019-04-21T16:51:36.077Z,101618.06
2019-04-21T16:54:10.227Z,101614.98
2019-04-21T16:56:43.909Z,101612.22
2019-04-21T16:59:18.785Z,101614.03
2019-04-21T17:01:52.807Z,101613.18
2019-04-21T17:04:26.565Z,101607.56
2019-04-21T17:07:02.712Z,101610.23
2019-04-21T17:09:36.853Z,101604.13
2019-04-21T17:12:14.108Z,101603.40
2019-04-21T17:15:01.146Z,101606.06
2019-04-21T17:17:43.338Z,101595.57
2019-04-21T17:20:10.196Z,101597.66
2019-04-21T17:22:31.525Z,101597.34
2019-04-21T17:25:06.709Z,101600.47
2019-04-21T17:27:40.750Z,101588.75
2019-04-21T17:30:18.798Z,101586.66
2019-04-21T17:32:53.762Z,101592.27
2019-04-21T17:35:28.898Z,101586.89
2019-04-21T17:38:03.897Z,101581.33
2019-04-21T17:40:37.905Z,101580.59
2019-04-21T17:43:17.500Z,101579.34
2019-04-21T17:45:48.960Z,101583.35
2019-04-21T17:48:23.299Z,101578.16
2019-04-21T17:50:56.773Z,101576.52
2019-04-21T17:53:38.501Z,101576.11
2019-04-21T17:56:31.737Z,101575.70
2019-04-21T17:59:07.298Z,101577.09
2019-04-21T18:01:39.371Z,101570.62
2019-04-21T18:04:14.857Z,101575.87
2019-04-21T18:06:50.169Z,101577.42
2019-04-21T18:09:37.295Z,101578.86
2019-04-21T18:12:05.787Z,101576.36
2019-04-21T18:14:22.201Z,101575.55
2019-04-21T18:16:58.143Z,101570.34
2019-04-21T18:19:36.845Z,101576.03
2019-04-21T18:22:09.070Z,101576.08
2019-04-21T18:24:55.522Z,101576.98
2019-04-21T18:27:19.614Z,101567.80
2019-04-21T18:29:56.207Z,101574.11
2019-04-21T18:32:34.173Z,101574.28
2019-04-21T18:35:08.444Z,101573.87
2019-04-21T18:37:47.403Z,101571.77
2019-04-21T18:40:24.569Z,101571.81
2019-04-21T18:43:23.438Z,101571.86
2019-04-21T18:45:54.911Z,101570.62
2019-04-21T18:48:16.468Z,101576.33
2019-04-21T18:50:46.264Z,101575.47
2019-04-21T18:53:23.815Z,101576.77
2019-04-21T18:55:53.252Z,101575.05
2019-04-21T18:58:24.184Z,101576.81
2019-04-21T19:01:06.834Z,101576.91
2019-04-21T19:03:39.922Z,101574.45
2019-04-21T19:06:12.814Z,101567.56
2019-04-21T19:09:08.618Z,101569.41
2019-04-21T19:11:32.916Z,101570.75
2019-04-21T19:19:39.209Z,101569.85
2019-04-21T19:22:00.674Z,101570.35
2019-04-21T19:24:33.748Z,101572.19
2019-04-21T19:27:13.174Z,101573.30
2019-04-21T19:29:42.311Z,101568.62
2019-04-21T19:32:19.787Z,101571.70
2019-04-21T19:34:40.463Z,101573.74
2019-04-21T19:37:16.412Z,101564.70
2019-04-21T19:40:00.478Z,101566.95
2019-04-21T19:42:32.262Z,101564.81
2019-04-21T19:45:10.791Z,101564.00
2019-04-21T19:47:48.796Z,101560.96
2019-04-21T19:50:28.722Z,101560.59
2019-04-21T19:52:52.010Z,101563.70
2019-04-21T19:55:18.323Z,101560.19
2019-04-21T19:57:52.698Z,101560.22
2019-04-21T20:00:26.594Z,101556.81
2019-04-21T20:03:00.783Z,101560.33
2019-04-21T20:05:42.986Z,101555.09
2019-04-21T20:08:23.776Z,101556.63
2019-04-21T20:11:03.876Z,101558.13
2019-04-21T20:13:53.058Z,101554.23
2019-04-21T20:16:12.864Z,101558.61
2019-04-21T20:18:36.943Z,101557.75
2019-04-21T20:21:05.955Z,101553.86
2019-04-21T20:23:41.473Z,101551.30
2019-04-21T20:26:17.062Z,101549.77
2019-04-21T20:29:01.376Z,101552.52
2019-04-21T20:31:44.567Z,101551.26
2019-04-21T20:34:17.742Z,101542.73
2019-04-21T20:37:00.308Z,101544.57
2019-04-21T20:39:18.792Z,101542.00
2019-04-21T20:42:03.810Z,101537.91
2019-04-21T20:44:37.147Z,101528.97
2019-04-21T20:47:07.479Z,101529.08
2019-04-21T20:49:38.640Z,101531.25
2019-04-21T20:52:29.395Z,101531.30
2019-04-21T20:54:55.152Z,101530.96
2019-04-21T20:57:29.919Z,101529.23
2019-04-21T21:00:12.369Z,101524.90
2019-04-21T21:02:46.837Z,101526.69
2019-04-21T21:05:24.662Z,101525.37
2019-04-21T21:08:04.892Z,101519.17
2019-04-21T21:10:32.854Z,101518.88
2019-04-21T21:13:14.720Z,101519.32
2019-04-21T21:15:44.845Z,101516.55
2019-04-21T21:18:44.894Z,101516.28
2019-04-21T21:20:56.457Z,101518.95
2019-04-21T21:23:33.465Z,101510.30
2019-04-21T21:26:09.502Z,101515.09
2019-04-21T21:28:38.023Z,101511.20
2019-04-21T21:31:14.824Z,101508.69
2019-04-21T21:33:59.283Z,101504.54
2019-04-21T21:36:27.552Z,101502.89
2019-04-21T21:38:59.818Z,101502.09
2019-04-21T21:41:26.428Z,101499.27
2019-04-21T21:44:03.910Z,101495.82
2019-04-21T21:46:45.185Z,101494.21
2019-04-21T21:49:20.760Z,101498.25
2019-04-21T21:51:52.869Z,101503.11
2019-04-21T21:54:15.955Z,101499.52
2019-04-21T21:56:50.246Z,101494.58
2019-04-21T21:59:27.872Z,101497.28
2019-04-21T22:02:00.222Z,101496.01
2019-04-21T22:04:37.287Z,101492.13
2019-04-21T22:07:15.168Z,101493.47
2019-04-21T22:09:46.203Z,101492.23
2019-04-21T22:12:22.108Z,101483.52
2019-04-21T22:14:55.699Z,101486.99
2019-04-21T22:17:42.709Z,101486.66
2019-04-21T22:20:31.877Z,101487.07
2019-04-21T22:22:51.983Z,101486.09
2019-04-21T22:25:24.323Z,101484.83
2019-04-21T22:27:51.706Z,101484.85
2019-04-21T22:30:33.494Z,101482.05
2019-04-21T22:33:06.386Z,101479.95
2019-04-21T22:35:42.679Z,101475.66
2019-04-21T22:38:24.704Z,101473.98
2019-04-21T22:40:59.053Z,101469.71
2019-04-21T22:43:29.220Z,101472.33
2019-04-21T22:45:55.909Z,101471.91
2019-04-21T22:48:30.707Z,101470.30
2019-04-21T22:51:07.689Z,101462.98
2019-04-21T22:53:47.246Z,101454.83
2019-04-21T22:56:24.386Z,101458.08
2019-04-21T22:58:55.022Z,101452.58
2019-04-21T23:01:34.990Z,101455.72
2019-04-21T23:04:05.220Z,101449.63
2019-04-21T23:06:39.603Z,101446.48
2019-04-21T23:09:14.955Z,101450.94
2019-04-21T23:11:51.490Z,101442.74
2019-04-21T23:14:25.846Z,101440.16
2019-04-21T23:17:23.940Z,101439.79
2019-04-21T23:19:53.839Z,101436.80
2019-04-21T23:22:27.890Z,101432.16
2019-04-21T23:25:07.511Z,101429.69
2019-04-21T23:27:40.424Z,101426.28
2019-04-21T23:30:19.959Z,101425.05
2019-04-21T23:32:42.191Z,101418.02
2019-04-21T23:35:18.306Z,101419.89
2019-04-21T23:37:51.019Z,101417.75
2019-04-21T23:40:21.803Z,101414.77
2019-04-21T23:42:53.336Z,101408.26
2019-04-21T23:45:33.490Z,101413.94
2019-04-21T23:48:18.491Z,101407.47
2019-04-21T23:50:45.914Z,101400.93
2019-04-21T23:53:13.208Z,101399.17
2019-04-21T23:55:47.426Z,101394.02
2019-04-21T23:58:25.217Z,101400.78
